createdAt,value
2022-11-16T00:00:51.737Z,13.08
2022-11-16T00:02:58.600Z,13.06
2022-11-16T00:05:09.426Z,13.04
2022-11-16T00:07:17.092Z,13.00
2022-11-16T00:09:28.962Z,12.99
2022-11-16T00:11:36.577Z,12.99
2022-11-16T00:13:47.532Z,12.95
2022-11-16T00:15:59.161Z,12.98
2022-11-16T00:18:07.470Z,12.97
2022-11-16T00:20:15.427Z,12.93
2022-11-16T00:22:22.066Z,12.93
2022-11-16T00:24:28.757Z,12.86
2022-11-16T00:26:36.396Z,12.92
2022-11-16T00:28:43.334Z,12.94
2022-11-16T00:31:02.987Z,12.93
2022-11-16T00:33:16.458Z,12.95
2022-11-16T00:35:23.146Z,12.97
2022-11-16T00:37:29.980Z,12.97
2022-11-16T00:39:37.460Z,12.98
2022-11-16T00:41:44.986Z,13.01
2022-11-16T00:43:51.674Z,13.03
2022-11-16T00:46:03.243Z,13.05
2022-11-16T00:48:10.135Z,13.05
2022-11-16T00:50:16.874Z,13.07
2022-11-16T00:52:24.411Z,13.09
2022-11-16T00:54:31.297Z,13.11
2022-11-16T00:56:39.237Z,13.12
2022-11-16T00:58:47.461Z,13.13
2022-11-16T01:00:54.244Z,13.14
2022-11-16T01:03:03.681Z,13.13
2022-11-16T01:05:15.387Z,13.14
2022-11-16T01:07:22.024Z,13.15
2022-11-16T01:09:28.805Z,13.16
2022-11-16T01:11:51.862Z,13.15
2022-11-16T01:13:58.865Z,13.18
2022-11-16T01:16:08.868Z,13.21
2022-11-16T01:18:19.550Z,13.21
2022-11-16T01:20:31.103Z,13.24
2022-11-16T01:22:40.258Z,12.94
2022-11-16T01:24:49.475Z,13.24
2022-11-16T01:26:58.512Z,13.22
2022-11-16T01:29:09.573Z,13.21
2022-11-16T01:31:21.513Z,13.17
2022-11-16T01:33:34.114Z,13.19
2022-11-16T01:35:41.614Z,13.17
2022-11-16T01:37:49.563Z,13.00
2022-11-16T01:39:56.846Z,13.10
2022-11-16T01:42:03.814Z,13.11
2022-11-16T01:44:59.372Z,13.11
2022-11-16T01:47:14.921Z,13.12
2022-11-16T01:49:30.573Z,13.13
2022-11-16T01:51:39.827Z,13.13
2022-11-16T01:53:47.534Z,13.12
2022-11-16T01:55:56.400Z,13.08
2022-11-16T01:58:47.047Z,13.08
2022-11-16T02:01:03.081Z,13.07
2022-11-16T02:03:25.122Z,13.08
2022-11-16T02:05:58.529Z,13.08
2022-11-16T02:08:54.267Z,13.06
2022-11-16T02:11:36.348Z,12.93
2022-11-16T02:14:05.978Z,12.87
2022-11-16T02:16:33.544Z,12.78
2022-11-16T02:18:59.237Z,12.72
2022-11-16T02:21:36.516Z,12.62
2022-11-16T02:24:18.020Z,12.50
2022-11-16T02:27:00.674Z,12.44
2022-11-16T02:29:31.499Z,12.43
2022-11-16T02:31:48.381Z,12.42
2022-11-16T02:34:00.050Z,12.43
2022-11-16T02:36:17.637Z,12.45
2022-11-16T02:38:32.147Z,12.48
2022-11-16T02:40:48.698Z,12.52
2022-11-16T02:43:11.653Z,12.53
2022-11-16T02:45:29.288Z,12.59
2022-11-16T02:47:42.504Z,12.64
2022-11-16T02:49:59.415Z,12.67
2022-11-16T02:52:08.887Z,12.70
2022-11-16T02:54:21.281Z,12.72
2022-11-16T02:56:33.230Z,12.73
2022-11-16T02:58:41.468Z,12.75
2022-11-16T03:01:03.664Z,12.74
2022-11-16T03:03:31.252Z,12.71
2022-11-16T03:05:48.044Z,12.67
2022-11-16T03:08:11.465Z,12.71
2022-11-16T03:10:37.419Z,12.73
2022-11-16T03:12:46.476Z,12.72
2022-11-16T03:15:02.758Z,12.69
2022-11-16T03:17:24.964Z,12.62
2022-11-16T03:19:42.974Z,12.42
2022-11-16T03:21:57.364Z,12.49
2022-11-16T03:24:06.425Z,12.47
2022-11-16T03:26:23.670Z,12.49
2022-11-16T03:28:45.380Z,12.51
2022-11-16T03:31:03.301Z,12.52
2022-11-16T03:33:25.770Z,12.52
2022-11-16T03:35:41.783Z,12.52
2022-11-16T03:37:55.856Z,12.49
2022-11-16T03:40:07.965Z,12.43
2022-11-16T03:42:17.070Z,12.41
2022-11-16T03:44:25.574Z,12.40
2022-11-16T03:46:32.793Z,12.39
2022-11-16T03:48:43.865Z,12.43
2022-11-16T03:51:03.243Z,12.42
2022-11-16T03:53:10.077Z,12.42
2022-11-16T03:55:18.390Z,12.43
2022-11-16T03:57:26.317Z,12.42
2022-11-16T03:59:36.665Z,12.39
2022-11-16T04:01:45.063Z,12.36
2022-11-16T04:03:57.104Z,12.36
2022-11-16T04:06:19.661Z,12.38
2022-11-16T04:08:41.795Z,12.33
2022-11-16T04:11:05.239Z,12.32
2022-11-16T04:13:33.757Z,12.26
2022-11-16T04:15:56.378Z,12.25
2022-11-16T04:18:21.527Z,12.25
2022-11-16T04:20:46.753Z,12.23
2022-11-16T04:23:18.209Z,12.20
2022-11-16T04:25:35.044Z,12.09
2022-11-16T04:27:58.242Z,12.08
2022-11-16T04:30:07.748Z,12.02
2022-11-16T04:32:31.360Z,12.00
2022-11-16T04:34:54.052Z,11.97
2022-11-16T04:37:19.693Z,11.94
2022-11-16T04:39:28.671Z,11.94
2022-11-16T04:41:52.628Z,11.86
2022-11-16T04:44:00.663Z,11.98
2022-11-16T04:46:25.579Z,11.98
2022-11-16T04:48:32.849Z,12.01
2022-11-16T04:50:42.713Z,12.04
2022-11-16T04:52:52.997Z,12.02
2022-11-16T04:55:00.239Z,12.09
2022-11-16T04:57:09.324Z,12.09
2022-11-16T04:59:17.439Z,12.11
2022-11-16T05:01:44.713Z,12.10
2022-11-16T05:03:52.850Z,12.13
2022-11-16T05:06:00.321Z,12.18
2022-11-16T05:08:11.977Z,12.23
2022-11-16T05:10:19.524Z,12.27
2022-11-16T05:12:30.828Z,12.30
2022-11-16T05:14:40.534Z,12.34
2022-11-16T05:16:47.659Z,12.37
2022-11-16T05:19:07.420Z,12.42
2022-11-16T05:21:15.641Z,12.46
2022-11-16T05:23:41.445Z,12.44
2022-11-16T05:25:52.588Z,12.40
2022-11-16T05:27:59.274Z,12.36
2022-11-16T05:30:09.441Z,12.32
2022-11-16T05:32:17.166Z,12.27
2022-11-16T05:34:23.841Z,12.23
2022-11-16T05:36:30.744Z,12.24
2022-11-16T05:38:41.145Z,12.23
2022-11-16T05:40:47.835Z,12.22
2022-11-16T05:42:55.110Z,12.23
2022-11-16T05:45:03.363Z,12.23
2022-11-16T05:47:09.968Z,12.21
2022-11-16T05:49:17.994Z,12.13
2022-11-16T05:51:25.857Z,12.16
2022-11-16T05:53:34.144Z,12.16
2022-11-16T05:55:43.832Z,12.13
2022-11-16T05:57:51.777Z,12.10
2022-11-16T05:59:59.172Z,12.07
2022-11-16T06:02:08.297Z,12.09
2022-11-16T06:06:39.146Z,12.12
2022-11-16T06:08:46.606Z,12.12
2022-11-16T06:11:06.517Z,12.04
2022-11-16T06:13:15.621Z,12.16
2022-11-16T06:15:22.677Z,12.18
2022-11-16T06:17:30.165Z,12.23
2022-11-16T06:19:38.406Z,12.27
2022-11-16T06:21:45.282Z,12.29
2022-11-16T06:23:58.920Z,12.26
2022-11-16T06:26:10.912Z,12.28
2022-11-16T06:28:18.786Z,12.27
2022-11-16T06:30:27.753Z,12.28
2022-11-16T06:32:36.595Z,12.30
2022-11-16T06:34:45.709Z,12.31
2022-11-16T06:36:55.033Z,12.33
2022-11-16T06:39:03.930Z,12.31
2022-11-16T06:41:18.748Z,12.33
2022-11-16T06:43:30.561Z,12.37
2022-11-16T06:45:38.555Z,12.38
2022-11-16T06:47:46.693Z,12.39
2022-11-16T06:49:55.501Z,12.46
2022-11-16T06:52:06.338Z,12.49
2022-11-16T06:54:14.365Z,12.48
2022-11-16T06:56:26.187Z,12.43
2022-11-16T07:01:32.324Z,12.44
2022-11-16T07:03:44.412Z,12.43
2022-11-16T07:05:50.803Z,12.43
2022-11-16T07:07:59.169Z,12.45
2022-11-16T07:10:12.883Z,12.45
2022-11-16T07:12:20.312Z,12.42
2022-11-16T07:14:30.415Z,12.46
2022-11-16T07:16:45.568Z,12.43
2022-11-16T07:18:54.987Z,12.44
2022-11-16T07:21:03.892Z,12.44
2022-11-16T07:23:14.610Z,12.42
2022-11-16T07:25:25.733Z,12.41
2022-11-16T07:27:35.279Z,12.39
2022-11-16T07:29:41.590Z,12.39
2022-11-16T07:32:12.243Z,12.37
2022-11-16T07:34:38.688Z,12.36
2022-11-16T07:37:00.270Z,12.38
2022-11-16T07:39:12.512Z,12.35
2022-11-16T07:41:25.856Z,12.37
2022-11-16T07:43:53.616Z,12.38
2022-11-16T07:48:44.212Z,12.35
2022-11-16T07:51:46.995Z,12.30
2022-11-16T07:54:16.646Z,12.33
2022-11-16T07:56:23.435Z,12.36
2022-11-16T07:58:37.303Z,12.40
2022-11-16T08:00:44.529Z,12.42
2022-11-16T08:02:57.036Z,12.41
2022-11-16T08:05:18.107Z,12.34
2022-11-16T08:07:29.623Z,12.44
2022-11-16T08:09:40.960Z,12.44
2022-11-16T08:11:54.742Z,12.42
2022-11-16T08:14:05.796Z,12.38
2022-11-16T08:16:22.650Z,12.40
2022-11-16T08:18:39.400Z,12.42
2022-11-16T08:20:50.256Z,12.47
2022-11-16T08:22:57.365Z,12.46
2022-11-16T08:25:15.237Z,12.46
2022-11-16T08:27:26.607Z,12.48
2022-11-16T08:29:39.074Z,12.48
2022-11-16T08:31:48.967Z,12.48
2022-11-16T08:34:03.054Z,12.48
2022-11-16T08:36:24.990Z,12.25
2022-11-16T08:38:32.817Z,12.49
2022-11-16T08:40:42.649Z,12.49
2022-11-16T08:42:48.770Z,12.44
2022-11-16T08:44:55.105Z,12.45
2022-11-16T08:47:06.331Z,12.45
2022-11-16T08:49:23.044Z,12.47
2022-11-16T08:51:37.790Z,12.47
2022-11-16T08:53:49.938Z,12.46
2022-11-16T08:55:59.450Z,12.41
2022-11-16T08:58:09.945Z,12.35
2022-11-16T09:00:21.485Z,12.29
2022-11-16T09:02:32.703Z,12.30
2022-11-16T09:04:41.324Z,12.32
2022-11-16T09:06:49.753Z,12.37
2022-11-16T09:08:56.132Z,12.34
2022-11-16T09:11:04.067Z,12.43
2022-11-16T09:13:09.768Z,12.47
2022-11-16T09:15:15.171Z,12.45
2022-11-16T09:17:23.233Z,12.40
2022-11-16T09:19:28.934Z,12.37
2022-11-16T09:21:37.144Z,12.36
2022-11-16T09:23:46.147Z,12.36
2022-11-16T09:25:52.040Z,12.36
2022-11-16T09:27:58.551Z,12.33
2022-11-16T09:30:06.088Z,12.32
2022-11-16T09:32:11.741Z,12.31
2022-11-16T09:34:17.341Z,12.28
2022-11-16T09:36:24.018Z,12.33
2022-11-16T09:38:46.577Z,12.36
2022-11-16T09:40:59.405Z,12.33
2022-11-16T09:43:24.145Z,12.30
2022-11-16T09:45:42.708Z,12.20
2022-11-16T09:47:54.592Z,12.10
2022-11-16T09:50:08.371Z,11.89
2022-11-16T09:52:29.521Z,11.83
2022-11-16T09:54:44.268Z,11.77
2022-11-16T09:57:01.158Z,11.74
2022-11-16T09:59:23.377Z,11.73
2022-11-16T10:01:39.182Z,11.72
2022-11-16T10:03:51.677Z,11.64
2022-11-16T10:06:06.321Z,11.23
2022-11-16T10:08:24.483Z,11.67
2022-11-16T10:10:41.638Z,11.71
2022-11-16T10:13:07.135Z,11.76
2022-11-16T10:15:48.108Z,11.75
2022-11-16T10:18:27.234Z,11.76
2022-11-16T10:21:17.799Z,11.72
2022-11-16T10:23:45.189Z,11.68
2022-11-16T10:26:00.323Z,11.58
2022-11-16T10:28:41.564Z,11.52
2022-11-16T10:31:03.753Z,11.46
2022-11-16T10:33:21.707Z,10.77
2022-11-16T10:35:37.417Z,11.45
2022-11-16T10:37:51.383Z,11.29
2022-11-16T10:39:56.916Z,11.21
2022-11-16T10:42:13.469Z,11.17
2022-11-16T10:44:37.338Z,11.16
2022-11-16T10:46:59.180Z,11.22
2022-11-16T10:49:19.638Z,11.23
2022-11-16T10:51:26.723Z,11.24
2022-11-16T10:53:38.095Z,11.28
2022-11-16T10:55:44.031Z,11.14
2022-11-16T10:58:03.908Z,11.11
2022-11-16T11:00:44.324Z,10.97
2022-11-16T11:02:52.195Z,10.91
2022-11-16T11:05:23.173Z,10.80
2022-11-16T11:07:35.970Z,10.77
2022-11-16T11:09:43.541Z,10.77
2022-11-16T11:12:18.924Z,10.65
2022-11-16T11:14:24.499Z,10.81
2022-11-16T11:16:34.126Z,10.89
2022-11-16T11:18:39.789Z,10.94
2022-11-16T11:20:51.311Z,10.92
2022-11-16T11:23:03.220Z,10.91
2022-11-16T11:25:24.831Z,10.86
2022-11-16T11:27:37.695Z,10.72
2022-11-16T11:29:47.429Z,10.72
2022-11-16T11:32:03.482Z,10.73
2022-11-16T11:34:23.770Z,10.77
2022-11-16T11:36:38.753Z,10.76
2022-11-16T11:39:03.629Z,10.81
2022-11-16T11:41:22.549Z,10.84
2022-11-16T11:43:31.269Z,10.83
2022-11-16T11:45:48.656Z,10.84
2022-11-16T11:48:06.317Z,10.77
2022-11-16T11:50:21.033Z,10.71
2022-11-16T11:52:40.948Z,10.66
2022-11-16T11:54:50.683Z,10.54
2022-11-16T11:56:58.128Z,10.43
2022-11-16T11:59:06.956Z,10.38
2022-11-16T12:02:03.418Z,10.22
2022-11-16T12:05:12.421Z,10.16
2022-11-16T12:07:40.165Z,10.05
2022-11-16T12:09:58.244Z,9.91
2022-11-16T12:12:31.896Z,9.87
2022-11-16T12:15:06.393Z,9.82
2022-11-16T12:17:31.884Z,9.76
2022-11-16T12:20:11.120Z,9.75
2022-11-16T12:23:06.310Z,9.74
2022-11-16T12:25:28.367Z,9.74
2022-11-16T12:27:56.851Z,9.69
2022-11-16T12:30:15.804Z,9.61
2022-11-16T12:32:57.645Z,9.64
2022-11-16T12:35:43.561Z,9.58
2022-11-16T12:38:02.983Z,9.56
2022-11-16T12:40:40.995Z,9.55
2022-11-16T12:43:05.278Z,9.34
2022-11-16T12:45:53.680Z,9.58
2022-11-16T12:48:33.988Z,9.60
2022-11-16T12:51:03.129Z,9.55
2022-11-16T12:53:40.195Z,9.59
2022-11-16T12:56:06.416Z,9.61
2022-11-16T12:58:29.438Z,9.59
2022-11-16T13:00:59.874Z,9.47
2022-11-16T13:03:24.173Z,9.45
2022-11-16T13:05:56.803Z,9.43
2022-11-16T13:08:14.405Z,9.41
2022-11-16T13:10:28.229Z,9.40
2022-11-16T13:12:36.452Z,9.39
2022-11-16T13:14:47.854Z,9.43
2022-11-16T13:16:56.885Z,9.54
2022-11-16T13:19:08.774Z,9.57
2022-11-16T13:21:34.570Z,9.50
2022-11-16T13:24:03.256Z,9.41
2022-11-16T13:26:23.070Z,9.40
2022-11-16T13:28:40.799Z,9.47
2022-11-16T13:31:06.312Z,9.48
2022-11-16T13:33:35.875Z,9.53
2022-11-16T13:35:42.413Z,9.55
2022-11-16T13:37:53.763Z,9.55
2022-11-16T13:40:29.611Z,9.51
2022-11-16T13:42:42.139Z,9.55
2022-11-16T13:44:51.628Z,9.55
2022-11-16T13:47:06.761Z,9.65
2022-11-16T13:49:27.878Z,9.68
2022-11-16T13:51:35.057Z,9.65
2022-11-16T13:56:28.319Z,9.89
2022-11-16T13:58:40.720Z,9.95
2022-11-16T14:01:07.798Z,10.01
2022-11-16T14:03:39.972Z,10.09
2022-11-16T14:05:50.722Z,10.10
2022-11-16T14:07:56.626Z,10.14
2022-11-16T14:10:08.669Z,10.20
2022-11-16T14:12:53.496Z,10.25
2022-11-16T14:15:17.603Z,10.30
2022-11-16T14:17:52.845Z,10.38
2022-11-16T14:19:58.996Z,10.46
2022-11-16T14:22:20.107Z,10.49
2022-11-16T14:24:41.115Z,10.56
2022-11-16T14:27:13.456Z,10.52
2022-11-16T14:29:54.787Z,10.42
2022-11-16T14:32:06.972Z,10.09
2022-11-16T14:34:22.267Z,10.33
2022-11-16T14:36:46.315Z,10.36
2022-11-16T14:38:52.889Z,10.30
2022-11-16T14:41:03.091Z,10.29
2022-11-16T14:43:25.070Z,10.18
2022-11-16T14:45:37.866Z,10.16
2022-11-16T14:47:43.694Z,10.15
2022-11-16T14:49:51.698Z,10.10
2022-11-16T14:52:05.743Z,9.99
2022-11-16T14:54:31.649Z,9.92
2022-11-16T14:56:37.723Z,9.88
2022-11-16T14:58:56.766Z,9.83
2022-11-16T15:01:06.316Z,9.76
2022-11-16T15:03:15.882Z,9.67
2022-11-16T15:05:26.903Z,9.64
2022-11-16T15:07:35.199Z,9.69
2022-11-16T15:09:45.103Z,9.74
2022-11-16T15:12:10.123Z,9.78
2022-11-16T15:14:24.712Z,9.82
2022-11-16T15:16:30.685Z,9.85
2022-11-16T15:18:37.679Z,9.88
2022-11-16T15:20:55.054Z,9.85
2022-11-16T15:23:03.459Z,9.83
2022-11-16T15:25:29.564Z,9.89
2022-11-16T15:27:41.638Z,9.89
2022-11-16T15:29:51.784Z,9.87
2022-11-16T15:31:58.711Z,9.90
2022-11-16T15:34:06.075Z,9.87
2022-11-16T15:36:29.513Z,9.83
2022-11-16T15:38:38.743Z,9.84
2022-11-16T15:40:51.758Z,9.77
2022-11-16T15:42:58.723Z,9.79
2022-11-16T15:45:27.419Z,9.77
2022-11-16T15:47:34.349Z,9.76
2022-11-16T15:49:44.558Z,9.77
2022-11-16T15:51:51.357Z,9.75
2022-11-16T15:54:14.794Z,9.71
2022-11-16T15:56:32.045Z,9.80
2022-11-16T15:58:43.696Z,9.81
2022-11-16T16:00:53.435Z,9.79
2022-11-16T16:03:09.319Z,9.76
2022-11-16T16:05:24.192Z,9.72
2022-11-16T16:07:45.550Z,9.67
2022-11-16T16:09:51.334Z,9.65
2022-11-16T16:12:18.280Z,9.60
2022-11-16T16:14:33.619Z,9.58
2022-11-16T16:16:43.291Z,9.54
2022-11-16T16:18:50.183Z,9.50
2022-11-16T16:20:55.939Z,9.48
2022-11-16T16:23:17.043Z,9.42
2022-11-16T16:25:33.567Z,9.36
2022-11-16T16:27:43.718Z,9.34
2022-11-16T16:29:51.251Z,9.31
2022-11-16T16:32:00.657Z,9.28
2022-11-16T16:34:14.892Z,9.28
2022-11-16T16:36:20.768Z,9.27
2022-11-16T16:38:27.334Z,9.28
2022-11-16T16:40:33.484Z,9.28
2022-11-16T16:42:39.447Z,9.25
2022-11-16T16:44:48.025Z,9.27
2022-11-16T16:46:53.555Z,9.29
2022-11-16T16:49:03.055Z,9.27
2022-11-16T16:51:09.701Z,9.29
2022-11-16T16:53:17.157Z,9.32
2022-11-16T16:55:23.041Z,9.30
2022-11-16T16:57:29.697Z,9.36
2022-11-16T16:59:36.508Z,9.37
2022-11-16T17:01:42.545Z,9.36
2022-11-16T17:03:50.642Z,9.38
2022-11-16T17:06:04.819Z,9.36
2022-11-16T17:08:11.082Z,9.35
2022-11-16T17:10:17.555Z,9.30
2022-11-16T17:12:23.132Z,9.28
2022-11-16T17:14:28.778Z,9.22
2022-11-16T17:16:35.770Z,9.21
2022-11-16T17:18:41.518Z,9.26
2022-11-16T17:20:47.210Z,9.21
2022-11-16T17:22:56.554Z,9.22
2022-11-16T17:25:03.113Z,9.23
2022-11-16T17:27:09.160Z,9.25
2022-11-16T17:29:15.764Z,9.23
2022-11-16T17:31:21.432Z,9.25
2022-11-16T17:33:27.005Z,9.16
2022-11-16T17:35:33.476Z,9.18
2022-11-16T17:37:39.364Z,9.11
2022-11-16T17:39:47.721Z,9.09
2022-11-16T17:41:54.804Z,9.09
2022-11-16T17:44:00.352Z,9.10
2022-11-16T17:46:10.720Z,9.12
2022-11-16T17:48:17.241Z,9.08
2022-11-16T17:50:22.961Z,9.06
2022-11-16T17:52:29.009Z,9.09
2022-11-16T17:54:35.866Z,9.09
2022-11-16T17:56:44.655Z,9.05
2022-11-16T17:58:52.520Z,9.07
2022-11-16T18:00:59.700Z,9.11
2022-11-16T18:03:06.947Z,9.09
2022-11-16T18:05:13.037Z,9.05
2022-11-16T18:07:19.829Z,9.04
2022-11-16T18:09:25.636Z,9.02
2022-11-16T18:11:32.005Z,8.55
2022-11-16T18:13:42.313Z,9.01
2022-11-16T18:15:48.109Z,8.99
2022-11-16T18:17:53.849Z,8.94
2022-11-16T18:20:00.553Z,8.90
2022-11-16T18:22:07.909Z,8.91
2022-11-16T18:24:14.359Z,8.93
2022-11-16T18:26:25.165Z,8.93
2022-11-16T18:28:30.815Z,8.91
2022-11-16T18:30:39.306Z,8.91
2022-11-16T18:32:45.768Z,8.84
2022-11-16T18:34:51.426Z,8.78
2022-11-16T18:36:57.078Z,8.67
2022-11-16T18:39:03.739Z,8.61
2022-11-16T18:41:19.962Z,8.55
2022-11-16T18:43:25.624Z,8.46
2022-11-16T18:45:32.141Z,8.44
2022-11-16T18:47:40.800Z,8.43
2022-11-16T18:49:46.777Z,8.34
2022-11-16T18:51:53.550Z,8.26
2022-11-16T18:53:59.756Z,8.25
2022-11-16T18:56:08.514Z,8.19
2022-11-16T18:58:43.494Z,8.19
2022-11-16T19:00:40.998Z,8.20
2022-11-16T19:02:49.537Z,8.19
2022-11-16T19:04:56.078Z,8.19
2022-11-16T19:07:03.169Z,8.21
2022-11-16T19:09:10.053Z,8.20
2022-11-16T19:11:19.316Z,8.10
2022-11-16T19:13:25.791Z,8.01
2022-11-16T19:15:31.249Z,7.92
2022-11-16T19:17:53.383Z,7.80
2022-11-16T19:20:06.464Z,7.74
2022-11-16T19:22:12.222Z,7.72
2022-11-16T19:24:18.711Z,7.57
2022-11-16T19:26:27.033Z,7.63
2022-11-16T19:28:32.689Z,7.55
2022-11-16T19:30:39.623Z,7.51
2022-11-16T19:32:45.241Z,7.45
2022-11-16T19:34:51.021Z,7.39
2022-11-16T19:37:00.627Z,7.37
2022-11-16T19:39:09.349Z,7.33
2022-11-16T19:41:20.452Z,7.27
2022-11-16T19:43:27.181Z,7.20
2022-11-16T19:45:33.091Z,7.10
2022-11-16T19:47:39.529Z,7.03
2022-11-16T19:49:46.439Z,6.98
2022-11-16T19:51:52.293Z,6.98
2022-11-16T19:54:03.265Z,6.96
2022-11-16T19:56:14.264Z,6.82
2022-11-16T19:58:19.900Z,6.90
2022-11-16T20:00:25.952Z,6.87
2022-11-16T20:02:32.657Z,6.83
2022-11-16T20:04:38.510Z,6.84
2022-11-16T20:06:44.751Z,6.81
2022-11-16T20:08:53.586Z,6.78
2022-11-16T20:11:03.080Z,6.72
2022-11-16T20:13:08.909Z,6.70
2022-11-16T20:15:15.570Z,6.61
2022-11-16T20:17:21.338Z,6.57
2022-11-16T20:19:26.983Z,6.50
2022-11-16T20:21:36.433Z,6.48
2022-11-16T20:23:42.036Z,6.45
2022-11-16T20:25:47.663Z,6.46
2022-11-16T20:27:57.075Z,6.40
2022-11-16T20:30:09.088Z,6.37
2022-11-16T20:32:15.356Z,6.39
2022-11-16T20:34:22.492Z,6.34
2022-11-16T20:36:31.918Z,6.36
2022-11-16T20:38:39.387Z,6.31
2022-11-16T20:40:46.096Z,6.35
2022-11-16T20:42:54.643Z,6.37
2022-11-16T20:45:03.943Z,6.29
2022-11-16T20:47:10.704Z,6.28
2022-11-16T20:49:16.789Z,6.29
2022-11-16T20:51:24.135Z,6.30
2022-11-16T20:53:30.953Z,6.22
2022-11-16T20:55:36.553Z,6.16
2022-11-16T20:57:43.474Z,6.15
2022-11-16T20:59:50.169Z,6.18
2022-11-16T21:01:58.941Z,6.19
2022-11-16T21:04:08.709Z,6.15
2022-11-16T21:06:16.807Z,6.12
2022-11-16T21:08:23.541Z,6.07
2022-11-16T21:10:31.280Z,6.14
2022-11-16T21:12:53.867Z,6.12
2022-11-16T21:14:59.710Z,6.08
2022-11-16T21:17:10.027Z,6.11
2022-11-16T21:19:17.313Z,6.06
2022-11-16T21:21:23.025Z,5.96
2022-11-16T21:23:29.526Z,5.88
2022-11-16T21:25:36.344Z,5.88
2022-11-16T21:27:42.159Z,5.81
2022-11-16T21:29:48.029Z,5.86
2022-11-16T21:31:54.596Z,5.86
2022-11-16T21:34:06.046Z,5.77
2022-11-16T21:36:15.661Z,5.72
2022-11-16T21:38:22.929Z,5.78
2022-11-16T21:40:28.716Z,5.69
2022-11-16T21:42:34.367Z,5.73
2022-11-16T21:44:44.886Z,5.71
2022-11-16T21:46:50.645Z,5.70
2022-11-16T21:48:58.116Z,5.66
2022-11-16T21:51:10.344Z,5.67
2022-11-16T21:53:17.475Z,5.66
2022-11-16T21:55:23.239Z,5.64
2022-11-16T21:57:29.765Z,5.61
2022-11-16T21:59:35.511Z,5.66
2022-11-16T22:01:53.500Z,5.65
2022-11-16T22:04:15.883Z,5.68
2022-11-16T22:06:39.946Z,5.72
2022-11-16T22:08:46.460Z,5.74
2022-11-16T22:10:53.949Z,5.78
2022-11-16T22:12:59.646Z,5.76
2022-11-16T22:15:09.662Z,5.76
2022-11-16T22:17:16.184Z,5.81
2022-11-16T22:19:21.790Z,5.78
2022-11-16T22:21:30.414Z,5.71
2022-11-16T22:23:38.643Z,5.71
2022-11-16T22:25:45.103Z,5.67
2022-11-16T22:28:19.290Z,5.71
2022-11-16T22:30:19.544Z,5.78
2022-11-16T22:32:25.328Z,5.77
2022-11-16T22:34:31.014Z,5.80
2022-11-16T22:36:40.671Z,5.80
2022-11-16T22:38:46.398Z,5.73
2022-11-16T22:40:54.676Z,5.75
2022-11-16T22:43:03.352Z,5.83
2022-11-16T22:45:10.274Z,5.86
2022-11-16T22:47:15.955Z,5.92
2022-11-16T22:49:22.515Z,5.94
2022-11-16T22:51:31.401Z,5.91
2022-11-16T22:53:39.783Z,5.92
2022-11-16T22:56:08.373Z,5.90
2022-11-16T22:58:16.810Z,5.89
2022-11-16T23:00:23.736Z,5.87
2022-11-16T23:02:33.134Z,5.88
2022-11-16T23:04:38.736Z,5.82
2022-11-16T23:06:44.289Z,5.81
2022-11-16T23:08:54.172Z,5.79
2022-11-16T23:11:22.960Z,5.77
2022-11-16T23:13:44.482Z,5.74
2022-11-16T23:15:53.636Z,5.65
2022-11-16T23:17:59.297Z,5.69
2022-11-16T23:20:22.779Z,5.69
2022-11-16T23:22:45.084Z,5.69
2022-11-16T23:25:09.487Z,5.66
2022-11-16T23:27:33.419Z,5.65
2022-11-16T23:29:40.033Z,5.62
2022-11-16T23:31:45.614Z,5.56
2022-11-16T23:33:51.162Z,5.55
2022-11-16T23:35:57.710Z,5.56
2022-11-16T23:38:06.930Z,5.52
2022-11-16T23:40:16.217Z,5.54
2022-11-16T23:42:38.486Z,5.55
2022-11-16T23:44:45.134Z,5.56
2022-11-16T23:46:50.670Z,5.57
2022-11-16T23:48:57.183Z,5.60
2022-11-16T23:51:04.092Z,5.61
2022-11-16T23:53:12.223Z,5.59
2022-11-16T23:55:23.336Z,5.56
2022-11-16T23:57:29.047Z,5.51
2022-11-16T23:59:34.796Z,5.43
